Airfield :
LOGIN :

Register | Disclaimer

   EN    FR    IT 

 










Legend :    VFR   Marginal VFR   IFR   Intensive IFR   Very Intensive IFR
Visi :
Ceiling :
>= 8 km
>= 3000ft
5 to 8 km
1000 to 3000 ft
1500m to 5 km
500 to 1000 ft
800 to 1500m
200 to 500 ft
< 800m
< 200 ft
Symbols :   Thunderstorms  Fog  Heavy snow  Heavy precipitations  Wind > 20 kt
SIGMETs :     Misc.  Thunderstorms  Icing  Turbulence  Mountain Waves  Volcanic Ashes






- Airport Elevation : 135 ft
- IATA code : EDI


EGPH - Edinburgh

CURRENT METAR :
  • 291620Z 04003KT 9000 -RA BKN012 OVC024 10/10 Q0996

EXPIRED METARs :
  • 291550Z 04004KT 9999 -RA BKN012 OVC024 10/10 Q0996
  • 291520Z 04005KT 9000 -RA OVC017 10/09 Q0996
  • 291450Z 04006KT 9999 -RA OVC021 10/09 Q0996
  • 291420Z 06005KT 030V100 9999 -RA OVC019 10/10 Q0997
  • 291350Z 06005KT 9999 -RA OVC018 11/09 Q0997

TAF TAF EGPH
Valid from the 29 at 12:00 until the 30 at 12:00 UTC


291100Z 2912/3012 07005KT 9999 FEW016 SCT040
TEMPO 2912/3007 7000 -RADZ BKN012
PROB40
TEMPO 2912/2919 4000 DZRA BR BKN007
BECMG 2917/2920 22013KT
TEMPO 2917/3012 23016G28KT
ATIS : +44 131 339 2823



MET'MAP, your aeronautical weather chart ! - Copyright ORBIFLY December 2007 - Disclaimer

ORBIFLY MET'MAP TEAM :

Programming & Development : Alexandra Zaïnal
Concept & original design : Baudouin d'Aumeries
Assistance for programming : Marc-Olivier Méhu
Technical & hardware support : Manuel Goepfert

Contact : metmap@orbifly.com




SOURCES & CREDITS :

   NOAA